Terminal Aerodrome Forecast
Issued by NWS Grand Rapids, MI

Home | Current Version | Previous Version | Text Only | Print | Product List | Glossary On
Versions: 1 2 3 4 5 6 7 8 9 10 11 12 13 14 15 16 17 18 19 20 21 22 23 24 25
000
FTUS43 KGRR 270500
TAFGRR
TAF
KGRR 270540Z 2706/2806 35004KT P6SM -SHSN OVC035
      TEMPO 2707/2711 5SM -SHSN OVC025
     FM271100 32006KT 4SM -SN OVC015
     FM271800 34010KT P6SM VCSH BKN035=

USA.gov is the U.S. government's official web portal to all federal, state and local government web resources and services.